Time;durP1;ratioP1;P1;durP2;ratioP2;P2;SDS_P1;SDS_P2;PMS_P1;PMS_P2;Temp;Humidity;BMP_temperature;BMP_pressure;BME280_temperature;BME280_humidity;BME280_pressure;Samples;Min_cycle;Max_cycle;Signal;HPM_P1;HPM_P2
2022/10/24 00:01:29;;;;;;;13.63;4.65;;;;;;;12.60;100.00;100371.72;4970017;28;20031;-78
2022/10/24 00:03:55;;;;;;;13.32;4.80;;;;;;;12.63;100.00;100385.53;4960504;28;20089;-78
2022/10/24 00:06:21;;;;;;;14.82;5.20;;;;;;;12.57;100.00;100377.09;4973809;28;20023;-78
2022/10/24 00:08:47;;;;;;;15.23;4.72;;;;;;;12.57;100.00;100377.94;4972549;28;20066;-78
2022/10/24 00:11:18;;;;;;;10.70;4.35;;;;;;;12.54;100.00;100378.03;4973241;28;20023;-77
2022/10/24 00:13:43;;;;;;;10.63;3.92;;;;;;;12.50;100.00;100373.84;4973607;28;20037;-78
2022/10/24 00:16:09;;;;;;;14.68;4.47;;;;;;;12.50;100.00;100378.25;4973447;28;20026;-78
2022/10/24 00:18:35;;;;;;;14.70;4.68;;;;;;;12.50;100.00;100375.63;4972204;28;20031;-78
2022/10/24 00:21:00;;;;;;;13.07;4.35;;;;;;;12.49;100.00;100373.91;4972143;28;20034;-78
2022/10/24 00:23:26;;;;;;;12.80;4.43;;;;;;;12.46;100.00;100371.41;4971333;28;20030;-78
2022/10/24 00:25:51;;;;;;;17.90;4.13;;;;;;;12.43;100.00;100384.63;4971566;28;20038;-77
2022/10/24 00:28:16;;;;;;;16.70;4.20;;;;;;;12.45;100.00;100377.56;4976549;28;20069;-78
2022/10/24 00:30:42;;;;;;;12.52;3.90;;;;;;;12.43;100.00;100379.38;4972492;28;20062;-78
2022/10/24 00:33:07;;;;;;;8.90;4.10;;;;;;;12.36;100.00;100373.50;4976214;28;20089;-78
2022/10/24 00:35:33;;;;;;;11.85;3.70;;;;;;;12.34;100.00;100370.97;4972187;28;20030;-78
2022/10/24 00:37:58;;;;;;;13.80;4.78;;;;;;;12.32;100.00;100364.94;4972843;28;20550;-78
2022/10/24 00:40:24;;;;;;;10.15;3.97;;;;;;;12.34;100.00;100375.34;4972310;28;20035;-78
2022/10/24 00:42:50;;;;;;;16.48;4.40;;;;;;;12.29;100.00;100372.91;4973274;28;20134;-78
2022/10/24 00:45:45;;;;;;;17.88;4.18;;;;;;;12.26;100.00;100369.56;4979417;28;20363;-78
2022/10/24 00:48:19;;;;;;;12.38;4.15;;;;;;;12.23;100.00;100370.53;4972808;28;20059;-78
2022/10/24 00:50:44;;;;;;;;;;;;;;;12.18;100.00;100355.03;4973178;28;20035;-78
2022/10/24 00:53:11;;;;;;;12.05;3.92;;;;;;;12.18;100.00;100355.03;4971243;28;19918;-78
2022/10/24 00:55:36;;;;;;;14.05;4.40;;;;;;;12.17;100.00;100353.31;4972304;28;20486;-78
2022/10/24 00:58:04;;;;;;;10.13;4.00;;;;;;;12.16;100.00;100355.97;4973183;28;20038;-78
2022/10/24 01:00:32;;;;;;;14.85;4.35;;;;;;;12.13;100.00;100362.19;4971568;28;20404;-78
2022/10/24 01:02:58;;;;;;;14.13;3.95;;;;;;;12.15;100.00;100362.13;4973148;28;20137;-78
2022/10/24 01:05:27;;;;;;;10.95;3.97;;;;;;;12.11;100.00;100353.56;4971873;28;20023;-78
2022/10/24 01:08:07;;;;;;;12.35;4.05;;;;;;;12.11;100.00;100355.31;4972388;28;20110;-78
2022/10/24 01:10:52;;;;;;;11.40;3.72;;;;;;;12.09;100.00;100349.28;4971702;28;20471;-78
2022/10/24 01:13:34;;;;;;;10.05;4.20;;;;;;;12.13;100.00;100356.09;4971801;28;20026;-78
2022/10/24 01:16:09;;;;;;;13.25;4.35;;;;;;;12.09;100.00;100344.91;4960386;28;20196;-78
2022/10/24 01:18:59;;;;;;;9.07;4.32;;;;;;;12.11;100.00;100352.72;4971671;28;20038;-78
2022/10/24 01:21:29;;;;;;;9.43;4.10;;;;;;;12.09;100.00;100351.91;4973027;28;20030;-77
2022/10/24 01:24:24;;;;;;;10.50;4.10;;;;;;;12.07;100.00;100346.75;4972725;28;20023;-78
2022/10/24 01:27:24;;;;;;;9.82;4.20;;;;;;;12.10;100.00;100337.94;4950653;28;20035;-78
2022/10/24 01:29:58;;;;;;;10.13;4.00;;;;;;;12.10;100.00;100335.34;4972402;28;20134;-78
2022/10/24 01:32:35;;;;;;;7.93;3.85;;;;;;;12.12;100.00;100338.72;4975311;28;20473;-78
2022/10/24 01:35:11;;;;;;;13.82;4.03;;;;;;;12.12;100.00;100349.16;4974331;28;20038;-78
2022/10/24 01:37:51;;;;;;;10.20;3.97;;;;;;;12.10;100.00;100341.41;4971826;28;20066;-78
2022/10/24 01:40:22;;;;;;;10.23;3.72;;;;;;;12.08;100.00;100338.00;4971688;28;20482;-78
2022/10/24 01:42:50;;;;;;;9.93;3.85;;;;;;;12.08;100.00;100340.59;4969350;28;20052;-78
2022/10/24 01:45:24;;;;;;;9.63;3.88;;;;;;;12.06;100.00;100338.94;4970420;28;20069;-78
2022/10/24 01:47:53;;;;;;;8.02;4.10;;;;;;;12.04;100.00;100333.78;4973307;28;20078;-78
2022/10/24 01:50:21;;;;;;;14.32;3.50;;;;;;;12.02;100.00;100319.09;4971208;28;20550;-77
2022/10/24 01:52:47;;;;;;;9.77;3.75;;;;;;;12.03;100.00;100329.47;4972216;28;20105;-78
2022/10/24 01:55:13;;;;;;;10.27;3.72;;;;;;;12.03;100.00;100326.00;4971130;28;20450;-78
2022/10/24 01:57:38;;;;;;;8.60;3.10;;;;;;;11.97;100.00;100313.16;4971791;28;20058;-78
2022/10/24 02:00:06;;;;;;;10.13;3.20;;;;;;;11.91;100.00;100317.72;4972017;28;20058;-78
2022/10/24 02:02:48;;;;;;;17.05;3.28;;;;;;;11.89;100.00;100313.47;4970315;28;20475;-78
2022/10/24 02:05:27;;;;;;;12.18;3.08;;;;;;;11.90;100.00;100318.66;4974963;28;20479;-78
2022/10/24 02:07:59;;;;;;;10.15;3.00;;;;;;;11.92;100.00;100322.03;4976230;28;20023;-77
2022/10/24 02:10:29;;;;;;;8.15;2.67;;;;;;;11.91;100.00;100320.34;4974756;28;20026;-77
2022/10/24 02:13:00;;;;;;;6.03;2.63;;;;;;;11.93;100.00;100318.53;4964213;28;20082;-77
2022/10/24 02:15:30;;;;;;;9.52;3.38;;;;;;;11.88;100.00;100320.44;4973994;28;20390;-77
2022/10/24 02:17:56;;;;;;;6.35;2.88;;;;;;;11.83;100.00;100316.25;4975629;28;20035;-77
2022/10/24 02:20:34;;;;;;;9.57;2.88;;;;;;;11.77;100.00;100306.03;4974875;28;20105;-77
2022/10/24 02:23:07;;;;;;;13.07;2.63;;;;;;;11.81;100.00;100316.34;4981391;28;20502;-77
2022/10/24 02:25:35;;;;;;;10.30;3.00;;;;;;;11.77;100.00;100313.88;4976128;28;20027;-77
2022/10/24 02:28:08;;;;;;;8.85;2.75;;;;;;;11.81;100.00;100324.16;4975940;28;20031;-77
2022/10/24 02:30:41;;;;;;;10.98;2.53;;;;;;;11.81;100.00;100325.94;4974085;28;20026;-77
2022/10/24 02:33:08;;;;;;;8.35;2.47;;;;;;;11.79;100.00;100318.13;4975995;28;20070;-77
2022/10/24 02:35:35;;;;;;;8.30;2.70;;;;;;;11.79;100.00;100315.53;4974342;28;20157;-78
2022/10/24 02:38:13;;;;;;;8.73;2.60;;;;;;;11.81;100.00;100323.31;4975115;28;20034;-77
2022/10/24 02:40:41;;;;;;;8.75;2.60;;;;;;;11.84;100.00;100321.47;4970502;28;20137;-77
2022/10/24 02:43:09;;;;;;;7.68;2.60;;;;;;;11.82;100.00;100320.63;4972806;28;20042;-77
2022/10/24 02:45:35;;;;;;;7.55;2.60;;;;;;;11.81;100.00;100318.94;4973572;28;20034;-77
2022/10/24 02:48:05;;;;;;;5.82;2.33;;;;;;;11.84;100.00;100316.25;4974609;28;20034;-77
2022/10/24 02:50:31;;;;;;;9.07;2.50;;;;;;;11.90;100.00;100326.47;4963571;28;20157;-77
2022/10/24 02:52:57;;;;;;;5.15;2.28;;;;;;;11.93;100.00;100323.75;4973192;28;20109;-77
2022/10/24 02:55:22;;;;;;;6.60;2.00;;;;;;;12.01;100.00;100325.22;4977753;28;20533;-77
2022/10/24 02:57:47;;;;;;;5.40;2.10;;;;;;;12.05;100.00;100324.19;4975124;28;20050;-77
2022/10/24 03:00:13;;;;;;;5.93;2.80;;;;;;;12.05;100.00;100324.19;4985785;28;20034;-77
2022/10/24 03:02:38;;;;;;;4.90;2.17;;;;;;;12.03;100.00;100328.59;4974773;28;20030;-77
2022/10/24 03:05:04;;;;;;;10.65;2.90;;;;;;;12.02;100.00;100322.53;4975052;28;20378;-78
2022/10/24 03:07:29;;;;;;;9.85;2.17;;;;;;;12.01;100.00;100326.06;4973603;28;20372;-77
2022/10/24 03:09:55;;;;;;;7.05;2.00;;;;;;;12.09;100.00;100333.59;4975007;28;20019;-77
2022/10/24 03:12:20;;;;;;;6.80;2.47;;;;;;;12.12;100.00;100330.88;4983345;28;20463;-77
2022/10/24 03:14:45;;;;;;;14.73;2.45;;;;;;;12.17;100.00;100321.13;4974250;28;20069;-77
2022/10/24 03:17:11;;;;;;;13.23;2.65;;;;;;;12.22;100.00;100321.78;4973610;28;20501;-77
2022/10/24 03:19:37;;;;;;;7.35;2.38;;;;;;;12.27;100.00;100319.00;4973844;28;20125;-77
2022/10/24 03:22:03;;;;;;;5.93;2.05;;;;;;;12.30;100.00;100330.19;4974815;28;20553;-77
2022/10/24 03:24:28;;;;;;;8.43;2.08;;;;;;;12.31;100.00;100321.44;4973860;28;20027;-77
2022/10/24 03:26:53;;;;;;;7.40;2.17;;;;;;;12.30;100.00;100322.34;4973959;28;20030;-77
2022/10/24 03:29:19;;;;;;;5.97;2.47;;;;;;;12.28;100.00;100324.16;4973263;28;20134;-77
2022/10/24 03:31:45;;;;;;;6.63;2.53;;;;;;;12.27;100.00;100322.47;4972815;28;20391;-77
2022/10/24 03:34:10;;;;;;;5.53;2.00;;;;;;;12.27;100.00;100327.69;4972546;28;20062;-78
2022/10/24 03:36:35;;;;;;;10.07;2.35;;;;;;;12.25;100.00;100316.44;4973670;28;20781;-77
2022/10/24 03:39:00;;;;;;;8.40;2.60;;;;;;;12.28;100.00;100315.47;4974514;28;20030;-77
2022/10/24 03:41:26;;;;;;;5.40;1.90;;;;;;;12.33;100.00;100314.38;4971082;28;20105;-77
2022/10/24 03:43:51;;;;;;;7.15;2.10;;;;;;;12.46;100.00;100309.53;4972108;28;20402;-77
2022/10/24 03:46:17;;;;;;;6.10;2.00;;;;;;;12.50;100.00;100307.66;4972627;28;20074;-77
2022/10/24 03:48:42;;;;;;;8.77;2.63;;;;;;;12.57;100.00;100307.31;4972900;28;20037;-77
2022/10/24 03:51:07;;;;;;;9.27;2.92;;;;;;;12.52;100.00;100306.66;4974680;28;20019;-77
2022/10/24 03:53:33;;;;;;;5.55;2.15;;;;;;;12.48;100.00;100302.47;4971626;28;20027;-77
2022/10/24 03:55:59;;;;;;;11.55;2.45;;;;;;;12.47;100.00;100302.53;4973957;28;20426;-77
2022/10/24 03:58:25;;;;;;;6.28;2.30;;;;;;;12.46;100.00;100308.66;4971499;28;20042;-77
2022/10/24 04:00:50;;;;;;;8.95;2.58;;;;;;;12.48;100.00;100310.31;4972762;28;20053;-77
2022/10/24 04:03:15;;;;;;;5.10;2.13;;;;;;;12.48;100.00;100309.47;4970968;28;20154;-77
2022/10/24 04:05:40;;;;;;;9.40;3.00;;;;;;;12.49;100.00;100312.03;4973043;28;20035;-77
2022/10/24 04:08:06;;;;;;;8.48;2.25;;;;;;;12.54;100.00;100324.91;4971788;28;20050;-77
2022/10/24 04:10:31;;;;;;;11.20;2.20;;;;;;;12.57;100.00;100320.41;4972478;28;20015;-77
2022/10/24 04:12:56;;;;;;;6.85;2.15;;;;;;;12.61;100.00;100316.75;4971813;28;20034;-77
2022/10/24 04:15:22;;;;;;;8.25;2.00;;;;;;;12.65;100.00;100307.88;4972309;28;20454;-77
2022/10/24 04:17:47;;;;;;;8.60;2.08;;;;;;;12.65;100.00;100305.28;4972592;28;20034;-77
2022/10/24 04:20:12;;;;;;;5.20;1.95;;;;;;;12.66;100.00;100290.44;4972105;28;20039;-77
2022/10/24 04:22:38;;;;;;;5.32;1.80;;;;;;;12.69;100.00;100311.22;4970456;28;20038;-77
2022/10/24 04:25:03;;;;;;;9.45;1.85;;;;;;;12.68;100.00;100293.81;4972533;28;20026;-77
2022/10/24 04:27:29;;;;;;;7.00;2.10;;;;;;;12.68;100.00;100300.81;4972310;28;20033;-77
2022/10/24 04:29:54;;;;;;;8.45;2.47;;;;;;;12.68;100.00;100296.44;4970839;28;20053;-77
2022/10/24 04:32:19;;;;;;;9.02;1.98;;;;;;;12.73;100.00;100294.50;4971158;28;20525;-77
2022/10/24 04:34:45;;;;;;;7.18;1.90;;;;;;;12.79;100.00;100303.84;4970581;28;20037;-77
2022/10/24 04:37:10;;;;;;;9.90;1.92;;;;;;;12.72;100.00;100313.72;4972549;28;20023;-77
2022/10/24 04:39:35;;;;;;;3.53;1.60;;;;;;;12.70;100.00;100301.63;4973853;28;20184;-77
2022/10/24 04:42:00;;;;;;;4.78;2.13;;;;;;;12.68;100.00;100308.66;4979121;28;20497;-77
2022/10/24 04:44:26;;;;;;;7.38;2.08;;;;;;;12.68;100.00;100303.44;4978938;28;20183;-77
2022/10/24 04:46:51;;;;;;;10.23;2.00;;;;;;;12.69;100.00;100308.59;4973310;28;20485;-76
2022/10/24 04:49:18;;;;;;;8.50;1.85;;;;;;;12.81;100.00;100309.84;4972441;28;20038;-77
2022/10/24 04:51:43;;;;;;;10.52;1.88;;;;;;;12.85;100.00;100298.34;4972147;28;20062;-77
2022/10/24 04:54:08;;;;;;;9.98;1.88;;;;;;;12.92;100.00;100310.28;4973435;28;20051;-77
2022/10/24 04:56:34;;;;;;;6.72;1.77;;;;;;;12.97;100.00;100307.47;4976866;28;20041;-77
2022/10/24 04:59:00;;;;;;;9.13;1.70;;;;;;;13.04;100.00;100309.75;4972555;28;20030;-77
2022/10/24 05:01:25;;;;;;;10.23;2.08;;;;;;;13.09;100.00;100301.72;4972014;28;20482;-77
2022/10/24 05:03:50;;;;;;;9.52;2.10;;;;;;;13.18;100.00;100305.69;4972929;28;20490;-77
2022/10/24 05:06:16;;;;;;;10.18;2.20;;;;;;;13.28;100.00;100301.81;4972293;28;20474;-77
2022/10/24 05:08:41;;;;;;;6.53;2.38;;;;;;;13.19;100.00;100296.94;4972260;28;20105;-77
2022/10/24 05:11:08;;;;;;;6.82;2.05;;;;;;;13.16;100.00;100308.38;4972884;28;20031;-77
2022/10/24 05:13:34;;;;;;;9.15;2.53;;;;;;;13.17;100.00;100306.63;4971484;28;20026;-77
2022/10/24 05:16:00;;;;;;;6.78;2.70;;;;;;;13.13;100.00;100316.38;4972814;28;20039;-77
2022/10/24 05:18:25;;;;;;;7.20;1.88;;;;;;;13.13;100.00;100311.13;4971646;28;20113;-77
2022/10/24 05:20:54;;;;;;;9.90;1.98;;;;;;;13.15;100.00;100314.56;4972066;28;20023;-77
2022/10/24 05:23:20;;;;;;;7.05;1.85;;;;;;;13.18;100.00;100319.66;4971809;28;20400;-77
2022/10/24 05:25:45;;;;;;;8.82;2.15;;;;;;;13.25;100.00;100312.41;4971983;28;20030;-77
2022/10/24 05:28:10;;;;;;;7.20;1.85;;;;;;;13.25;100.00;100334.22;4971809;28;20078;-77
2022/10/24 05:30:36;;;;;;;10.23;2.30;;;;;;;13.29;100.00;100337.53;4971718;28;20035;-77
2022/10/24 05:33:01;;;;;;;10.68;2.30;;;;;;;13.37;100.00;100332.81;4980739;28;20026;-77
2022/10/24 05:35:26;;;;;;;10.98;1.88;;;;;;;13.48;100.00;100329.75;4975174;28;20029;-77
2022/10/24 05:37:52;;;;;;;9.02;2.78;;;;;;;13.57;100.00;100338.06;4972118;28;20081;-76
2022/10/24 05:40:17;;;;;;;8.38;2.13;;;;;;;13.63;100.00;100342.16;4969120;28;20035;-77
2022/10/24 05:42:42;;;;;;;11.05;2.80;;;;;;;13.63;100.00;100342.16;4978064;28;20046;-77
2022/10/24 05:45:09;;;;;;;9.77;2.00;;;;;;;13.67;100.00;100335.00;4970940;28;20528;-77
2022/10/24 05:47:34;;;;;;;12.52;2.60;;;;;;;13.68;100.00;100332.34;4968358;28;20502;-77
2022/10/24 05:50:02;;;;;;;9.80;1.88;;;;;;;13.62;100.00;100337.00;4974942;28;20034;-77
2022/10/24 05:52:27;;;;;;;7.78;1.85;;;;;;;13.62;100.00;100343.09;4970606;28;20089;-77
2022/10/24 05:54:52;;;;;;;10.77;1.95;;;;;;;13.62;100.00;100337.84;4969547;28;20019;-77
2022/10/24 05:57:20;;;;;;;9.23;2.05;;;;;;;13.64;100.00;100341.25;4980980;28;20542;-78
2022/10/24 05:59:45;;;;;;;6.57;1.98;;;;;;;13.63;100.00;100339.53;4975375;28;20046;-77
2022/10/24 06:02:19;;;;;;;8.60;2.10;;;;;;;13.57;100.00;100337.22;4971665;28;20410;-77
2022/10/24 06:04:45;;;;;;;7.40;1.98;;;;;;;13.49;100.00;100336.69;4971817;28;20038;-77
2022/10/24 06:07:10;;;;;;;10.20;2.00;;;;;;;13.42;100.00;100330.84;4971692;28;20026;-77
2022/10/24 06:09:38;;;;;;;5.32;1.65;;;;;;;13.42;100.00;100336.09;4971075;28;20573;-77
2022/10/24 06:12:03;;;;;;;10.48;1.67;;;;;;;13.48;100.00;100350.69;4973555;28;20034;-77
2022/10/24 06:14:28;;;;;;;12.80;2.20;;;;;;;13.47;100.00;100347.25;4970791;28;20043;-77
2022/10/24 06:16:53;;;;;;;12.40;2.33;;;;;;;13.44;100.00;100352.59;4969953;28;20074;-77
2022/10/24 06:19:20;;;;;;;7.05;2.03;;;;;;;13.42;100.00;100346.56;4962645;28;20043;-77
2022/10/24 06:21:47;;;;;;;11.40;2.33;;;;;;;13.35;100.00;100356.47;4967112;28;20111;-77
2022/10/24 06:24:12;;;;;;;9.90;2.47;;;;;;;13.25;100.00;100349.91;4971186;28;20023;-77
2022/10/24 06:26:38;;;;;;;17.15;2.13;;;;;;;13.29;100.00;100361.94;4971134;28;20544;-77
2022/10/24 06:29:03;;;;;;;8.00;1.73;;;;;;;13.27;100.00;100358.53;4971837;28;20089;-77
2022/10/24 06:31:28;;;;;;;11.70;2.47;;;;;;;13.23;100.00;100364.78;4970592;28;20486;-77
2022/10/24 06:33:54;;;;;;;9.52;2.17;;;;;;;13.21;100.00;100356.16;4972112;28;20023;-77
2022/10/24 06:36:19;;;;;;;8.70;2.08;;;;;;;13.19;100.00;100363.22;4971176;28;20717;-77
2022/10/24 06:38:45;;;;;;;7.63;2.33;;;;;;;13.20;100.00;100372.78;4970860;28;20035;-77
2022/10/24 06:41:12;;;;;;;9.02;2.15;;;;;;;13.18;100.00;100376.34;4971737;28;20027;-76
2022/10/24 06:43:38;;;;;;;7.85;2.25;;;;;;;13.04;100.00;100358.63;4964381;28;20054;-77
2022/10/24 06:46:12;;;;;;;12.48;2.38;;;;;;;13.11;100.00;100381.88;4969057;28;20045;-78
2022/10/24 06:48:38;;;;;;;16.55;2.05;;;;;;;13.11;100.00;100388.84;4964217;28;20031;-77
2022/10/24 06:51:03;;;;;;;8.38;1.92;;;;;;;13.13;100.00;100376.56;4967597;28;20581;-77
2022/10/24 06:53:29;;;;;;;10.15;2.00;;;;;;;13.23;100.00;100390.97;4970449;28;20192;-76
2022/10/24 06:55:59;;;;;;;12.00;2.60;;;;;;;13.29;100.00;100385.50;4972672;28;20027;-77
2022/10/24 06:58:24;;;;;;;10.15;2.13;;;;;;;13.38;100.00;100405.22;4972042;28;20379;-77
2022/10/24 07:00:49;;;;;;;8.20;1.88;;;;;;;13.49;100.00;100400.38;4974355;28;20042;-78
2022/10/24 07:03:15;;;;;;;13.65;2.17;;;;;;;13.61;100.00;100411.25;4973754;28;20043;-77
2022/10/24 07:05:40;;;;;;;11.40;2.00;;;;;;;13.53;100.00;100403.72;4973541;28;20070;-77
2022/10/24 07:08:05;;;;;;;10.18;3.00;;;;;;;13.44;100.00;100401.47;4972576;28;20430;-78
2022/10/24 07:10:31;;;;;;;12.95;2.45;;;;;;;13.26;100.00;100392.66;4956457;28;20453;-77
2022/10/24 07:12:56;;;;;;;8.98;1.70;;;;;;;13.26;100.00;100403.13;4971596;28;20030;-77
2022/10/24 07:15:21;;;;;;;9.85;2.08;;;;;;;13.19;100.00;100405.09;4970547;28;20023;-77
2022/10/24 07:17:47;;;;;;;11.43;1.70;;;;;;;13.09;100.00;100396.78;4974778;28;20037;-77
2022/10/24 07:20:13;;;;;;;13.85;2.38;;;;;;;13.07;100.00;100409.06;4973368;28;20027;-76
2022/10/24 07:22:39;;;;;;;14.73;3.13;;;;;;;13.06;100.00;100422.22;4973502;28;20031;-77
2022/10/24 07:25:05;;;;;;;10.30;2.45;;;;;;;13.18;100.00;100426.97;4974320;28;20081;-77
2022/10/24 07:27:31;;;;;;;13.82;2.83;;;;;;;13.36;100.00;100433.22;4971776;28;20046;-77
2022/10/24 07:29:57;;;;;;;15.35;2.33;;;;;;;13.52;100.00;100436.91;4971063;28;20033;-76
2022/10/24 07:32:22;;;;;;;10.68;2.28;;;;;;;13.71;100.00;100441.38;4972563;28;20058;-77
2022/10/24 07:34:48;;;;;;;7.78;2.67;;;;;;;13.82;100.00;100439.13;4974012;28;20050;-77
2022/10/24 07:37:14;;;;;;;8.15;1.98;;;;;;;13.85;100.00;100439.00;4973829;28;20162;-78
2022/10/24 07:39:39;;;;;;;14.07;3.08;;;;;;;13.86;100.00;100424.13;4972033;28;20026;-78
2022/10/24 07:42:05;;;;;;;13.15;2.25;;;;;;;13.88;100.00;100448.50;4971644;28;20046;-78
2022/10/24 07:44:30;;;;;;;12.48;2.13;;;;;;;13.96;100.00;100452.50;4972314;28;20415;-77
2022/10/24 07:46:55;;;;;;;10.38;1.92;;;;;;;14.08;100.00;100461.59;4974088;28;20183;-77
2022/10/24 07:49:20;;;;;;;13.63;2.20;;;;;;;14.14;100.00;100469.19;4971912;28;20034;-77
2022/10/24 07:51:46;;;;;;;9.48;2.10;;;;;;;14.14;100.00;100487.53;4976571;28;20039;-78
2022/10/24 07:54:11;;;;;;;10.32;1.90;;;;;;;14.18;100.00;100470.75;4973427;28;20034;-77
2022/10/24 07:56:36;;;;;;;9.60;2.47;;;;;;;14.23;100.00;100496.78;4973315;28;20026;-79
2022/10/24 07:59:02;;;;;;;4.90;1.50;;;;;;;14.34;100.00;100483.19;4972286;28;20585;-77
2022/10/24 08:01:28;;;;;;;9.95;2.08;;;;;;;14.39;100.00;100483.84;4980651;28;20034;-77
2022/10/24 08:03:54;;;;;;;8.50;2.22;;;;;;;14.42;100.00;100483.69;4974268;28;20110;-78
2022/10/24 08:06:23;;;;;;;7.05;1.55;;;;;;;14.45;100.00;100492.28;4976265;28;20031;-78
2022/10/24 08:08:48;;;;;;;11.18;2.03;;;;;;;14.48;100.00;100504.38;4973123;28;20394;-78
2022/10/24 08:11:20;;;;;;;7.18;1.85;;;;;;;14.55;100.00;100505.88;4973706;28;20027;-77
2022/10/24 08:13:46;;;;;;;11.88;1.95;;;;;;;14.65;100.00;100496.66;4973753;28;20061;-78
2022/10/24 08:16:15;;;;;;;6.85;1.63;;;;;;;14.72;100.00;100518.22;4972932;28;20118;-78
2022/10/24 08:18:41;;;;;;;7.85;2.17;;;;;;;14.71;100.00;100520.00;4968389;28;20627;-77
2022/10/24 08:21:09;;;;;;;12.88;1.90;;;;;;;14.74;100.00;100519.81;4973570;28;20058;-78
2022/10/24 08:23:36;;;;;;;8.90;2.67;;;;;;;14.88;100.00;100534.13;4972256;28;20026;-77
2022/10/24 08:26:05;;;;;;;8.55;2.00;;;;;;;15.02;100.00;100523.81;4974046;28;20030;-77
2022/10/24 08:28:30;;;;;;;9.38;2.28;;;;;;;15.05;100.00;100528.06;4972700;28;20089;-77
2022/10/24 08:31:04;;;;;;;7.30;2.08;;;;;;;15.04;100.00;100527.22;4973119;28;20478;-78
2022/10/24 08:33:30;;;;;;;7.63;2.05;;;;;;;15.02;100.00;100538.72;4971743;28;20162;-77
2022/10/24 08:36:06;;;;;;;7.00;1.90;;;;;;;14.89;100.00;100530.56;4961704;28;20035;-81
2022/10/24 08:38:31;;;;;;;13.30;2.03;;;;;;;14.73;100.00;100535.66;4971523;28;20057;-77
2022/10/24 08:40:57;;;;;;;8.65;2.15;;;;;;;14.59;100.00;100536.28;4972934;28;20414;-76
2022/10/24 08:43:23;;;;;;;9.38;2.05;;;;;;;14.41;100.00;100534.44;4971842;28;20050;-76
2022/10/24 08:46:14;;;;;;;15.48;2.17;;;;;;;14.32;100.00;100535.69;4970362;28;20078;-77
2022/10/24 08:48:47;;;;;;;11.43;1.67;;;;;;;14.22;100.00;100544.88;4970879;28;20031;-77
2022/10/24 08:51:30;;;;;;;18.30;2.25;;;;;;;14.19;100.00;100535.38;4972362;28;20031;-76
2022/10/24 08:53:57;;;;;;;8.57;2.53;;;;;;;14.23;100.00;100543.97;4973479;28;20023;-76
2022/10/24 08:56:26;;;;;;;7.80;1.58;;;;;;;14.20;100.00;100529.22;4969323;28;20426;-76
2022/10/24 08:58:52;;;;;;;8.27;2.05;;;;;;;14.26;100.00;100528.94;4972490;28;20031;-76
2022/10/24 09:01:37;;;;;;;9.68;2.30;;;;;;;14.35;100.00;100553.06;4972661;28;20033;-76
2022/10/24 09:04:07;;;;;;;8.35;1.90;;;;;;;14.45;100.00;100554.34;4969750;28;20043;-78
2022/10/24 09:06:33;;;;;;;11.65;1.80;;;;;;;14.49;100.00;100540.22;4971663;28;20434;-75
2022/10/24 09:09:16;;;;;;;8.73;2.05;;;;;;;14.56;100.00;100541.66;4971538;28;20026;-75
2022/10/24 09:11:55;;;;;;;8.73;1.80;;;;;;;14.63;100.00;100550.13;4971993;28;20085;-75
2022/10/24 09:14:30;;;;;;;14.15;2.33;;;;;;;14.73;100.00;100551.41;4969055;28;20035;-75
2022/10/24 09:17:20;;;;;;;11.20;1.77;;;;;;;14.82;100.00;100558.00;4969924;28;20019;-75
2022/10/24 09:19:55;;;;;;;9.20;2.08;;;;;;;14.92;100.00;100554.88;4957804;28;20047;-78
2022/10/24 09:22:27;;;;;;;10.90;2.25;;;;;;;15.01;100.00;100563.25;4965679;28;20512;-77
2022/10/24 09:24:57;;;;;;;12.27;2.13;;;;;;;15.02;100.00;100559.72;4964850;28;20031;-76
2022/10/24 09:27:35;;;;;;;11.00;2.40;;;;;;;15.03;100.00;100557.00;4970914;28;20018;-73
2022/10/24 09:30:00;;;;;;;11.32;2.22;;;;;;;14.97;100.00;100567.78;4970500;28;20073;-75
2022/10/24 09:32:32;;;;;;;13.15;2.17;;;;;;;14.99;100.00;100581.69;4970408;28;20117;-77
2022/10/24 09:35:05;;;;;;;9.30;1.90;;;;;;;15.00;100.00;100580.78;4970372;28;20157;-77
2022/10/24 09:37:38;;;;;;;;;;;;;;;14.96;100.00;100584.47;4970513;28;20073;-78
2022/10/24 09:40:12;;;;;;;8.53;1.93;;;;;;;14.81;100.00;100577.28;4961857;28;19918;-79
2022/10/24 09:42:39;;;;;;;9.48;2.10;;;;;;;14.67;100.00;100585.78;4971456;28;20330;-78
2022/10/24 09:45:18;;;;;;;8.20;1.60;;;;;;;14.64;100.00;100592.00;4971613;28;20022;-76
2022/10/24 09:47:43;;;;;;;10.18;2.08;;;;;;;14.57;100.00;100574.00;4971681;28;20050;-80
2022/10/24 09:50:21;;;;;;;14.23;2.58;;;;;;;14.68;100.00;100588.34;4970365;28;20066;-79
2022/10/24 09:52:52;;;;;;;14.20;2.50;;;;;;;14.73;100.00;100603.88;4967906;28;20039;-79
2022/10/24 09:55:24;;;;;;;10.65;2.17;;;;;;;14.79;100.00;100592.25;4966713;28;20031;-79
2022/10/24 09:57:55;;;;;;;10.07;2.58;;;;;;;14.89;100.00;100606.66;4963464;28;20110;-79
2022/10/24 10:00:27;;;;;;;10.32;2.17;;;;;;;15.05;100.00;100601.56;4965742;28;20038;-78
2022/10/24 10:02:57;;;;;;;12.88;2.60;;;;;;;15.18;100.00;100597.47;4966304;28;20442;-79
2022/10/24 10:05:23;;;;;;;11.50;2.30;;;;;;;15.43;98.90;100610.28;4962087;28;20646;-78
2022/10/24 10:07:49;;;;;;;12.75;2.72;;;;;;;15.63;99.13;100607.56;4968418;28;20078;-78
2022/10/24 10:10:17;;;;;;;14.07;2.60;;;;;;;15.64;95.85;100617.16;4970830;28;20472;-78
2022/10/24 10:12:45;;;;;;;8.75;2.58;;;;;;;15.49;96.15;100611.78;4970586;28;20117;-78
2022/10/24 10:15:44;;;;;;;12.82;1.98;;;;;;;15.32;99.34;100620.44;4980319;28;20015;-78
2022/10/24 10:18:19;;;;;;;16.42;2.88;;;;;;;15.19;100.00;100626.25;4969561;28;20034;-78
2022/10/24 10:20:44;;;;;;;15.00;2.30;;;;;;;15.23;99.66;100625.19;4970073;28;20497;-78
2022/10/24 10:23:24;;;;;;;12.65;2.40;;;;;;;15.30;100.00;100620.50;4970868;28;20075;-78
2022/10/24 10:26:02;;;;;;;10.30;2.25;;;;;;;15.31;99.77;100624.00;4974621;28;20031;-78
2022/10/24 10:28:27;;;;;;;11.95;2.63;;;;;;;15.35;100.00;100628.19;4974850;28;20039;-78
2022/10/24 10:30:57;;;;;;;10.68;1.90;;;;;;;15.38;100.00;100639.41;4973653;28;20039;-78
2022/10/24 10:33:35;;;;;;;11.65;2.55;;;;;;;15.41;99.07;100641.03;4973072;28;20023;-78
2022/10/24 10:36:23;;;;;;;14.35;2.33;;;;;;;15.41;99.87;100638.41;4962278;28;20037;-78
2022/10/24 10:39:14;;;;;;;10.18;2.53;;;;;;;15.50;98.57;100643.25;4974507;28;20070;-77
2022/10/24 10:41:47;;;;;;;10.23;2.33;;;;;;;15.62;98.13;100652.31;4973902;28;20816;-77
2022/10/24 10:44:40;;;;;;;12.18;2.28;;;;;;;15.68;96.69;100655.53;4972073;28;20110;-78
2022/10/24 10:47:11;;;;;;;15.43;2.30;;;;;;;15.57;94.71;100656.94;4965613;28;20081;-78
2022/10/24 10:49:39;;;;;;;8.95;2.20;;;;;;;15.43;99.97;100668.06;4973484;28;20115;-78
2022/10/24 10:52:15;;;;;;;12.80;2.42;;;;;;;15.07;100.00;100660.94;4972793;28;20109;-78
2022/10/24 10:54:56;;;;;;;12.40;2.92;;;;;;;14.72;100.00;100684.38;4956381;28;20069;-78
2022/10/24 10:57:29;;;;;;;10.27;2.63;;;;;;;14.55;100.00;100678.13;4973110;28;20042;-78
2022/10/24 11:00:06;;;;;;;;;;;;;;;14.39;100.00;100685.78;4975615;28;20102;-78
2022/10/24 11:02:43;;;;;;;20.70;2.83;;;;;;;14.19;100.00;100695.31;4970953;28;19925;-78
2022/10/24 11:05:32;;;;;;;9.65;2.63;;;;;;;14.04;100.00;100696.78;4974383;28;20038;-78
2022/10/24 11:08:30;;;;;;;12.18;2.17;;;;;;;13.89;100.00;100672.94;4974794;28;20394;-78
2022/10/24 11:11:01;;;;;;;13.52;3.30;;;;;;;13.89;100.00;100686.88;4973631;28;20394;-78
2022/10/24 11:13:32;;;;;;;10.80;2.95;;;;;;;13.90;100.00;100687.78;4979246;28;20062;-78
2022/10/24 11:16:02;;;;;;;13.35;2.65;;;;;;;13.98;100.00;100683.06;4974742;28;20467;-78
2022/10/24 11:18:38;;;;;;;11.35;2.40;;;;;;;14.13;100.00;100684.22;4972926;28;20046;-79
2022/10/24 11:21:13;;;;;;;11.75;2.90;;;;;;;14.36;100.00;100683.28;4974760;28;20038;-79
2022/10/24 11:23:56;;;;;;;14.20;2.60;;;;;;;14.58;100.00;100678.84;4964909;28;20043;-79